Time;durP1;ratioP1;P1;durP2;ratioP2;P2;SDS_P1;SDS_P2;PMS_P1;PMS_P2;Temp;Humidity;BMP_temperature;BMP_pressure;BME280_temperature;BME280_humidity;BME280_pressure;Samples;Min_cycle;Max_cycle;Signal;HPM_P1;HPM_P2
2023/10/09 00:03:06;;;;;;;11.23;6.05;;;13.80;99.90;;;;;;4971210;28;20105;-84
2023/10/09 00:08:26;;;;;;;11.75;6.72;;;13.80;99.90;;;;;;4974005;28;20169;-84
2023/10/09 00:10:57;;;;;;;11.07;6.80;;;13.80;99.90;;;;;;4969398;28;20141;-84
2023/10/09 00:13:32;;;;;;;9.48;6.50;;;13.80;99.90;;;;;;4968735;28;20046;-84
2023/10/09 00:16:13;;;;;;;13.05;6.40;;;13.80;99.90;;;;;;4957600;28;20514;-85
2023/10/09 00:18:46;;;;;;;13.25;7.18;;;13.80;99.90;;;;;;4970620;28;20051;-84
2023/10/09 00:21:15;;;;;;;12.18;6.97;;;13.80;99.90;;;;;;4971062;28;20058;-84
2023/10/09 00:23:41;;;;;;;11.95;6.82;;;13.80;99.90;;;;;;4956697;28;20039;-84
2023/10/09 00:26:12;;;;;;;11.75;7.20;;;13.80;99.90;;;;;;4973159;28;20047;-84
2023/10/09 00:28:44;;;;;;;16.33;8.32;;;13.90;99.90;;;;;;4972720;28;20050;-84
2023/10/09 00:31:15;;;;;;;17.10;7.60;;;13.80;99.90;;;;;;4951626;28;20043;-85
2023/10/09 00:33:44;;;;;;;12.43;7.40;;;13.80;99.90;;;;;;4957652;28;20407;-84
2023/10/09 00:36:09;;;;;;;13.80;7.75;;;13.80;99.90;;;;;;4953086;28;20106;-84
2023/10/09 00:38:46;;;;;;;14.60;8.18;;;13.80;99.90;;;;;;4957072;28;20050;-84
2023/10/09 00:41:19;;;;;;;16.75;8.23;;;13.80;99.90;;;;;;4971380;28;20555;-84
2023/10/09 00:43:45;;;;;;;12.85;7.20;;;13.80;99.90;;;;;;4974019;28;20049;-85
2023/10/09 00:48:57;;;;;;;14.45;8.02;;;13.80;99.90;;;;;;4970833;28;20058;-84
2023/10/09 00:51:24;;;;;;;11.80;7.90;;;13.80;99.90;;;;;;4970794;28;20145;-84
2023/10/09 00:53:53;;;;;;;16.15;8.02;;;13.80;99.90;;;;;;4956589;28;20395;-85
2023/10/09 00:59:14;;;;;;;17.90;8.55;;;13.80;99.90;;;;;;4973936;28;20662;-84
2023/10/09 01:01:56;;;;;;;15.77;8.80;;;13.80;99.90;;;;;;4953824;28;20133;-85
2023/10/09 01:04:31;;;;;;;17.30;8.90;;;13.80;99.90;;;;;;4974548;28;20035;-84
2023/10/09 01:07:16;;;;;;;15.88;8.98;;;13.80;99.90;;;;;;4972873;28;20047;-84
2023/10/09 01:09:44;;;;;;;18.83;9.40;;;13.80;99.90;;;;;;4961797;28;20061;-84
2023/10/09 01:12:16;;;;;;;19.73;9.43;;;13.80;99.90;;;;;;4954015;28;20043;-84
2023/10/09 01:14:52;;;;;;;16.13;9.93;;;13.80;99.90;;;;;;4970027;28;20052;-84
2023/10/09 01:17:30;;;;;;;22.20;11.68;;;13.80;99.90;;;;;;4956513;28;20034;-84
2023/10/09 01:19:58;;;;;;;22.33;12.20;;;13.80;99.90;;;;;;4969213;28;20631;-85
2023/10/09 01:22:23;;;;;;;25.00;12.95;;;13.80;99.90;;;;;;4966379;28;20034;-84
2023/10/09 01:24:50;;;;;;;20.20;12.48;;;13.80;99.90;;;;;;4953924;28;20387;-84
2023/10/09 01:27:16;;;;;;;25.58;13.32;;;13.80;99.90;;;;;;4956308;28;20046;-83
2023/10/09 01:29:43;;;;;;;26.75;13.40;;;13.80;99.90;;;;;;4956732;28;20051;-85
2023/10/09 01:32:16;;;;;;;26.48;13.73;;;13.80;99.90;;;;;;4972492;28;20082;-83
2023/10/09 01:34:48;;;;;;;28.20;13.65;;;13.80;99.90;;;;;;4964458;28;20051;-84
2023/10/09 01:37:19;;;;;;;25.67;13.30;;;13.80;99.90;;;;;;4955205;28;20031;-85
2023/10/09 01:39:58;;;;;;;25.27;15.10;;;13.80;99.90;;;;;;4953931;28;20096;-84
2023/10/09 01:42:34;;;;;;;26.77;14.45;;;13.80;99.90;;;;;;4968569;28;20189;-84
2023/10/09 01:48:07;;;;;;;26.85;13.73;;;13.80;99.90;;;;;;4935647;29;20086;-84
2023/10/09 01:50:35;;;;;;;29.83;15.52;;;13.80;99.90;;;;;;4959612;28;20043;-84
2023/10/09 01:53:08;;;;;;;33.60;16.17;;;13.80;99.90;;;;;;4952781;28;20039;-84
2023/10/09 01:55:40;;;;;;;30.90;16.20;;;13.80;99.90;;;;;;4970235;28;20030;-84
2023/10/09 01:58:23;;;;;;;30.92;16.58;;;13.80;99.90;;;;;;4968847;28;20134;-84
2023/10/09 02:00:55;;;;;;;33.97;16.90;;;13.80;99.90;;;;;;4966297;28;20050;-84
2023/10/09 02:03:25;;;;;;;30.70;16.50;;;13.80;99.90;;;;;;4962044;28;20051;-85
2023/10/09 02:05:53;;;;;;;31.90;17.15;;;13.80;99.90;;;;;;4963899;28;20113;-84
2023/10/09 02:08:35;;;;;;;35.92;18.73;;;13.80;99.90;;;;;;4969454;28;20049;-84
2023/10/09 02:11:02;;;;;;;29.83;17.05;;;13.80;99.90;;;;;;4967403;28;20116;-84
2023/10/09 02:13:34;;;;;;;36.25;17.83;;;13.80;99.90;;;;;;4971531;28;20042;-84
2023/10/09 02:16:16;;;;;;;33.38;19.52;;;13.80;99.90;;;;;;4971597;28;20505;-84
2023/10/09 02:18:56;;;;;;;39.20;18.73;;;13.80;99.90;;;;;;4955720;28;20079;-84
2023/10/09 02:21:39;;;;;;;36.00;19.88;;;13.80;99.90;;;;;;4964135;28;20098;-84
2023/10/09 02:24:09;;;;;;;36.47;18.75;;;13.80;99.90;;;;;;4955684;28;20149;-84
2023/10/09 02:27:39;;;;;;;40.75;20.05;;;13.80;99.90;;;;;;4945846;28;20039;-84
2023/10/09 02:29:23;;;;;;;35.90;19.30;;;13.80;99.90;;;;;;4962551;28;20057;-84
2023/10/09 02:31:55;;;;;;;43.72;20.10;;;13.90;99.90;;;;;;4970121;28;20140;-85
2023/10/09 02:34:27;;;;;;;38.63;19.17;;;13.80;99.90;;;;;;4955108;28;20039;-84
2023/10/09 02:37:05;;;;;;;37.42;21.15;;;13.90;99.90;;;;;;4955755;28;20043;-85
2023/10/09 02:39:37;;;;;;;40.47;19.95;;;13.90;99.90;;;;;;4966723;28;20039;-85
2023/10/09 02:42:23;;;;;;;42.88;21.35;;;13.90;99.90;;;;;;4965770;28;20043;-84
2023/10/09 02:44:51;;;;;;;39.78;21.90;;;13.90;99.90;;;;;;4968944;28;20046;-84
2023/10/09 02:47:29;;;;;;;37.22;21.23;;;13.90;99.90;;;;;;4954975;28;20035;-84
2023/10/09 02:50:00;;;;;;;40.28;21.98;;;13.90;99.90;;;;;;4970915;28;20387;-85
2023/10/09 02:52:32;;;;;;;42.85;23.20;;;13.90;99.90;;;;;;4950446;28;20074;-84
2023/10/09 02:55:07;;;;;;;41.70;22.92;;;13.90;99.90;;;;;;4972355;28;20494;-84
2023/10/09 02:57:41;;;;;;;43.00;23.60;;;13.90;99.90;;;;;;4954017;28;20095;-84
2023/10/09 03:00:18;;;;;;;42.72;24.30;;;13.90;99.90;;;;;;4932545;28;20039;-84
2023/10/09 03:02:49;;;;;;;42.47;22.85;;;13.90;99.90;;;;;;4955195;28;20467;-85
2023/10/09 03:05:16;;;;;;;44.80;24.35;;;14.00;99.90;;;;;;4958734;28;20479;-84
2023/10/09 03:07:42;;;;;;;46.40;23.95;;;14.00;99.90;;;;;;4958508;28;20038;-85
2023/10/09 03:10:09;;;;;;;44.67;23.45;;;14.00;99.90;;;;;;4958767;28;20035;-84
2023/10/09 03:12:35;;;;;;;43.72;24.15;;;14.00;99.90;;;;;;4956661;28;20174;-84
2023/10/09 03:15:05;;;;;;;44.15;24.60;;;14.00;99.90;;;;;;4958448;28;20034;-84
2023/10/09 03:17:34;;;;;;;48.50;26.02;;;14.00;99.90;;;;;;4954530;28;20440;-84
2023/10/09 03:20:11;;;;;;;49.85;26.70;;;14.00;99.90;;;;;;4958493;28;20035;-84
2023/10/09 03:22:42;;;;;;;46.15;26.80;;;14.00;99.90;;;;;;4958421;28;20042;-84
2023/10/09 03:25:13;;;;;;;49.10;26.13;;;14.00;99.90;;;;;;4958269;28;20074;-84
2023/10/09 03:27:44;;;;;;;54.92;28.70;;;14.10;99.90;;;;;;4957423;28;20141;-84
2023/10/09 03:30:16;;;;;;;58.55;27.92;;;14.10;99.90;;;;;;4955880;28;20045;-84
2023/10/09 03:32:50;;;;;;;51.42;27.05;;;14.10;99.90;;;;;;4964241;28;20365;-84
2023/10/09 03:35:27;;;;;;;51.38;27.83;;;14.10;99.90;;;;;;4952939;28;20048;-84
2023/10/09 03:38:00;;;;;;;49.83;27.63;;;14.10;99.90;;;;;;4958616;28;20047;-84
2023/10/09 03:40:27;;;;;;;53.70;29.45;;;14.20;99.90;;;;;;4974382;28;20038;-84
2023/10/09 03:42:53;;;;;;;52.40;30.08;;;14.20;99.90;;;;;;4953770;28;20461;-85
2023/10/09 03:45:25;;;;;;;54.30;30.15;;;14.20;99.90;;;;;;4965813;28;20106;-84
2023/10/09 03:47:57;;;;;;;57.58;28.10;;;14.30;99.90;;;;;;4973683;28;20053;-84
2023/10/09 03:50:38;;;;;;;49.25;28.48;;;14.30;99.90;;;;;;4961360;28;20042;-84
2023/10/09 03:53:07;;;;;;;52.55;28.33;;;14.30;99.90;;;;;;4959984;28;20046;-84
2023/10/09 03:55:35;;;;;;;57.03;30.00;;;14.30;99.90;;;;;;4974004;28;20073;-84
2023/10/09 03:58:01;;;;;;;50.47;27.45;;;14.30;99.90;;;;;;4974106;28;20081;-84
2023/10/09 04:00:29;;;;;;;56.20;29.55;;;14.30;99.90;;;;;;4973498;28;20077;-84
2023/10/09 04:02:59;;;;;;;54.47;28.85;;;14.40;99.90;;;;;;4958100;28;20065;-83
2023/10/09 04:05:26;;;;;;;50.15;28.13;;;14.40;99.90;;;;;;4973729;28;20560;-84
2023/10/09 04:07:53;;;;;;;54.17;29.27;;;14.50;99.90;;;;;;4957644;28;20546;-84
2023/10/09 04:10:32;;;;;;;57.72;29.75;;;14.50;99.90;;;;;;4965103;28;20039;-84
2023/10/09 04:13:02;;;;;;;54.63;29.02;;;14.60;99.90;;;;;;4970945;28;20038;-84
2023/10/09 04:15:30;;;;;;;57.80;30.63;;;14.60;99.90;;;;;;4955536;28;20039;-83
2023/10/09 04:17:57;;;;;;;60.33;30.58;;;14.60;99.90;;;;;;4946492;28;20039;-83
2023/10/09 04:22:51;;;;;;;56.90;30.00;;;14.70;99.90;;;;;;4968633;28;20173;-84
2023/10/09 04:25:25;;;;;;;60.30;30.75;;;14.80;99.90;;;;;;4956513;28;20126;-84
2023/10/09 04:27:53;;;;;;;57.58;30.63;;;14.80;99.90;;;;;;4973444;28;20061;-84
2023/10/09 04:30:19;;;;;;;50.90;29.27;;;14.90;99.90;;;;;;4968950;28;20047;-84
2023/10/09 04:32:45;;;;;;;53.78;29.90;;;14.90;99.90;;;;;;4973954;28;20046;-84
2023/10/09 04:37:52;;;;;;;52.63;29.90;;;15.00;99.90;;;;;;4965188;28;20051;-84
2023/10/09 04:43:06;;;;;;;57.38;29.55;;;15.00;99.90;;;;;;4971079;28;20467;-84
2023/10/09 04:48:45;;;;;;;51.97;28.90;;;15.00;99.90;;;;;;4959477;28;20043;-84
2023/10/09 04:54:12;;;;;;;59.17;31.45;;;15.00;99.90;;;;;;4972145;28;20863;-84
2023/10/09 04:56:51;;;;;;;58.63;30.50;;;15.10;99.90;;;;;;4948313;28;20042;-84
2023/10/09 04:59:25;;;;;;;48.80;29.52;;;15.10;99.90;;;;;;4967193;28;20120;-83
2023/10/09 05:01:57;;;;;;;58.60;31.80;;;15.00;99.90;;;;;;4963627;28;20050;-84
2023/10/09 05:04:47;;;;;;;56.53;30.65;;;15.00;99.90;;;;;;4949810;28;20105;-84
2023/10/09 05:10:08;;;;;;;60.28;30.58;;;15.10;99.90;;;;;;4970974;28;20046;-84
2023/10/09 05:12:33;;;;;;;64.25;31.15;;;15.10;99.90;;;;;;4955204;28;20444;-83
2023/10/09 05:15:09;;;;;;;56.22;30.25;;;15.00;99.90;;;;;;4956184;28;20082;-84
2023/10/09 05:17:39;;;;;;;60.28;30.23;;;15.10;99.90;;;;;;4968722;28;20130;-83
2023/10/09 05:23:14;;;;;;;59.53;31.10;;;15.10;99.90;;;;;;4969500;28;20051;-84
2023/10/09 05:25:58;;;;;;;57.97;31.08;;;15.00;99.90;;;;;;4967369;28;20499;-83
2023/10/09 05:28:48;;;;;;;60.65;30.65;;;15.10;99.90;;;;;;4970670;28;20054;-84
2023/10/09 05:34:01;;;;;;;54.30;29.38;;;15.10;99.90;;;;;;4958127;28;20486;-83
2023/10/09 05:39:16;;;;;;;55.63;30.33;;;15.10;99.90;;;;;;4972730;28;20104;-83
2023/10/09 05:41:53;;;;;;;56.55;28.65;;;15.10;99.90;;;;;;4971869;28;20506;-83
2023/10/09 05:47:31;;;;;;;53.95;27.77;;;15.10;99.90;;;;;;4969024;28;20046;-83
2023/10/09 05:50:01;;;;;;;52.90;28.05;;;15.20;99.90;;;;;;4967912;28;20559;-83
2023/10/09 06:09:10;;;;;;;47.97;25.75;;;15.30;99.90;;;;;;4972518;28;20046;-84
2023/10/09 06:16:43;;;;;;;44.63;22.55;;;15.40;99.90;;;;;;4959470;28;20109;-83
2023/10/09 06:19:28;;;;;;;42.58;24.35;;;15.40;99.90;;;;;;4957166;28;20050;-83
2023/10/09 06:24:41;;;;;;;35.33;20.33;;;15.50;99.90;;;;;;4965672;28;20129;-83
2023/10/09 06:29:38;;;;;;;34.90;20.25;;;15.50;99.90;;;;;;4960271;28;20059;-84
2023/10/09 06:34:56;;;;;;;39.60;19.50;;;15.60;99.90;;;;;;4958121;28;20055;-82
2023/10/09 06:45:05;;;;;;;29.42;17.40;;;15.70;99.90;;;;;;4956786;29;20058;-83
2023/10/09 06:47:40;;;;;;;33.78;18.58;;;15.70;99.90;;;;;;4974428;28;20081;-84
2023/10/09 06:52:57;;;;;;;31.73;16.52;;;15.70;99.90;;;;;;4975569;28;20054;-85
2023/10/09 06:55:33;;;;;;;27.42;16.25;;;15.80;99.90;;;;;;4976139;28;20047;-83
2023/10/09 06:58:09;;;;;;;28.33;15.27;;;15.80;99.90;;;;;;4958969;28;20118;-84
2023/10/09 07:03:32;;;;;;;30.63;15.07;;;15.80;99.90;;;;;;4976588;28;20133;-83
2023/10/09 07:06:09;;;;;;;27.30;15.23;;;15.80;99.90;;;;;;4972144;28;20046;-84
2023/10/09 07:08:44;;;;;;;29.17;16.05;;;15.80;99.90;;;;;;4959281;28;20520;-84
2023/10/09 07:11:57;;;;;;;27.08;14.73;;;15.80;99.90;;;;;;4975103;28;20042;-84
2023/10/09 07:17:01;;;;;;;21.65;14.30;;;15.80;99.90;;;;;;4972010;28;20117;-84
2023/10/09 07:22:16;;;;;;;25.30;13.98;;;15.80;99.90;;;;;;4973423;28;20070;-83
2023/10/09 07:24:49;;;;;;;23.63;13.52;;;15.90;99.90;;;;;;4944400;28;20074;-83
2023/10/09 07:27:43;;;;;;;25.90;13.90;;;15.80;99.90;;;;;;4974817;28;20047;-82
2023/10/09 07:30:35;;;;;;;25.90;13.82;;;15.80;99.90;;;;;;4988009;28;20058;-84
2023/10/09 07:33:03;;;;;;;24.92;13.45;;;15.90;99.90;;;;;;4974814;28;20498;-84
2023/10/09 07:38:35;;;;;;;24.98;13.32;;;15.90;99.90;;;;;;4972885;28;20503;-84
2023/10/09 07:43:38;;;;;;;26.23;12.80;;;15.90;99.90;;;;;;4971079;28;20494;-84
2023/10/09 07:48:53;;;;;;;22.52;12.25;;;15.90;99.90;;;;;;4971029;28;20054;-84
2023/10/09 07:51:23;;;;;;;21.45;12.27;;;15.90;99.90;;;;;;4958625;28;20082;-84
2023/10/09 07:54:07;;;;;;;25.77;12.70;;;15.90;99.90;;;;;;4958923;28;20039;-84
2023/10/09 07:56:46;;;;;;;24.30;12.90;;;15.90;99.90;;;;;;4974818;28;20384;-84
2023/10/09 07:59:13;;;;;;;24.05;13.07;;;15.90;99.90;;;;;;4955198;29;20039;-84
2023/10/09 08:02:02;;;;;;;27.17;13.13;;;15.90;99.90;;;;;;4966497;28;20051;-84
2023/10/09 08:04:37;;;;;;;23.35;12.40;;;15.90;99.90;;;;;;4955591;28;20055;-84
2023/10/09 08:07:19;;;;;;;24.17;12.35;;;15.90;99.90;;;;;;4958282;28;20047;-84
2023/10/09 08:09:48;;;;;;;22.03;11.53;;;16.00;99.90;;;;;;4957898;28;20041;-84
2023/10/09 08:18:03;;;;;;;29.80;13.63;;;16.00;99.90;;;;;;4966294;28;20078;-84
2023/10/09 08:20:51;;;;;;;29.75;12.82;;;16.00;99.90;;;;;;4958344;28;20455;-85
2023/10/09 08:23:33;;;;;;;26.70;13.48;;;16.00;99.90;;;;;;4973875;28;20054;-84
2023/10/09 08:26:14;;;;;;;25.13;13.25;;;16.10;99.90;;;;;;4956450;28;20038;-84
2023/10/09 08:28:43;;;;;;;25.87;13.63;;;16.10;99.90;;;;;;4953855;28;20050;-84
2023/10/09 08:31:34;;;;;;;27.02;13.30;;;16.10;99.90;;;;;;4957793;28;20125;-84
2023/10/09 08:34:01;;;;;;;23.15;13.73;;;16.10;99.90;;;;;;4956446;28;20047;-84
2023/10/09 08:36:28;;;;;;;23.08;13.95;;;16.10;99.90;;;;;;4957280;28;20039;-85
2023/10/09 08:38:58;;;;;;;24.17;13.20;;;16.20;99.90;;;;;;4957200;28;20054;-84
2023/10/09 08:41:29;;;;;;;26.45;14.50;;;16.20;99.90;;;;;;4957583;28;20043;-84
2023/10/09 08:43:57;;;;;;;25.05;13.50;;;16.20;99.90;;;;;;4957285;28;20070;-85
2023/10/09 08:46:27;;;;;;;28.60;13.77;;;16.20;99.90;;;;;;4973887;28;20062;-85
2023/10/09 08:49:04;;;;;;;30.20;14.35;;;16.20;99.90;;;;;;4973790;28;20426;-85
2023/10/09 08:51:30;;;;;;;27.92;13.23;;;16.20;99.90;;;;;;4973088;28;20035;-84
2023/10/09 08:53:57;;;;;;;30.52;13.70;;;16.20;99.90;;;;;;4973414;28;20065;-85
2023/10/09 08:56:23;;;;;;;24.30;13.68;;;16.20;99.90;;;;;;4957218;28;20038;-84
2023/10/09 08:58:51;;;;;;;24.20;13.55;;;16.20;99.90;;;;;;4953688;29;20686;-83
2023/10/09 09:01:21;;;;;;;30.55;13.75;;;16.10;99.90;;;;;;4964030;28;20047;-83
2023/10/09 09:03:48;;;;;;;26.33;13.70;;;16.20;99.90;;;;;;4947120;28;20065;-83
2023/10/09 09:06:14;;;;;;;23.00;12.10;;;16.20;99.90;;;;;;4968342;28;20047;-84
2023/10/09 09:08:40;;;;;;;26.95;14.25;;;16.20;99.90;;;;;;4971406;28;20105;-83
2023/10/09 09:11:11;;;;;;;26.65;13.82;;;16.10;99.90;;;;;;4972974;28;20074;-84
2023/10/09 09:13:51;;;;;;;26.05;14.10;;;16.10;99.90;;;;;;4956667;28;20043;-83
2023/10/09 09:16:31;;;;;;;25.33;13.57;;;16.10;99.90;;;;;;4956943;28;20499;-83
2023/10/09 09:19:17;;;;;;;24.00;12.70;;;16.10;99.90;;;;;;4966361;28;20069;-84
2023/10/09 09:21:54;;;;;;;23.73;12.50;;;16.10;99.90;;;;;;4972861;28;20050;-83
2023/10/09 09:26:59;;;;;;;20.58;11.93;;;16.10;99.90;;;;;;4966809;28;20046;-83
2023/10/09 09:29:37;;;;;;;19.75;11.38;;;16.10;99.90;;;;;;4951249;28;20058;-83
2023/10/09 09:32:19;;;;;;;23.02;12.50;;;16.20;99.90;;;;;;4951657;28;20049;-83
2023/10/09 09:34:46;;;;;;;20.23;11.95;;;16.20;99.90;;;;;;4967349;28;20078;-83
2023/10/09 09:37:20;;;;;;;23.98;12.57;;;16.20;99.90;;;;;;4955587;28;20034;-83
2023/10/09 09:39:50;;;;;;;21.02;12.63;;;16.20;99.90;;;;;;4970373;28;20046;-83
2023/10/09 09:42:25;;;;;;;25.25;12.75;;;16.20;99.90;;;;;;4957245;28;20050;-82
2023/10/09 09:44:52;;;;;;;22.65;13.57;;;16.20;99.90;;;;;;4956290;28;20057;-83
2023/10/09 09:47:27;;;;;;;23.55;13.40;;;16.20;99.90;;;;;;4956253;28;20108;-83
2023/10/09 09:49:59;;;;;;;25.08;13.85;;;16.20;99.90;;;;;;4972413;28;20096;-83
2023/10/09 09:52:40;;;;;;;23.33;14.07;;;16.20;99.90;;;;;;4940566;28;20089;-83
2023/10/09 09:55:22;;;;;;;24.30;14.90;;;16.30;99.90;;;;;;4952308;28;20372;-83
2023/10/09 09:57:51;;;;;;;;;;;16.30;99.90;;;;;;4968567;28;20047;-83
2023/10/09 10:00:29;;;;;;;27.15;13.45;;;16.30;99.90;;;;;;4949894;29;19918;-83
2023/10/09 10:03:05;;;;;;;24.15;13.65;;;16.30;99.90;;;;;;4960242;28;20162;-82
2023/10/09 10:05:33;;;;;;;25.30;13.88;;;16.40;99.90;;;;;;4972179;28;20042;-84
2023/10/09 10:08:00;;;;;;;27.30;13.60;;;16.40;99.90;;;;;;4971341;28;20047;-83
2023/10/09 10:10:52;;;;;;;23.02;13.55;;;16.40;99.90;;;;;;4933378;28;20085;-83
2023/10/09 10:13:38;;;;;;;24.60;13.50;;;16.40;99.90;;;;;;4966692;28;20126;-83
2023/10/09 10:16:20;;;;;;;20.67;13.32;;;16.50;99.90;;;;;;4955304;28;20839;-83
2023/10/09 10:18:52;;;;;;;;;;;16.50;99.90;;;;;;4941740;28;20483;-84
2023/10/09 10:21:18;;;;;;;;;;;16.50;99.90;;;;;;4956518;28;20013;-84
2023/10/09 10:23:47;;;;;;;22.13;12.63;;;16.50;99.90;;;;;;4956645;28;19941;-84
2023/10/09 10:26:25;;;;;;;20.80;12.13;;;16.60;99.90;;;;;;4940042;28;20101;-84
2023/10/09 10:29:23;;;;;;;22.92;12.32;;;16.60;99.90;;;;;;4971868;28;20050;-83
2023/10/09 10:32:18;;;;;;;19.17;12.57;;;16.60;99.90;;;;;;4940415;28;20039;-84
2023/10/09 10:34:56;;;;;;;22.60;11.80;;;16.70;99.90;;;;;;4939081;28;20057;-82
2023/10/09 10:37:51;;;;;;;28.50;13.63;;;16.70;99.90;;;;;;4936375;29;20040;-84
2023/10/09 10:40:40;;;;;;;29.25;13.10;;;16.70;99.90;;;;;;4952196;29;20491;-83
2023/10/09 10:43:31;;;;;;;21.67;12.18;;;16.70;99.90;;;;;;4968548;28;20051;-83
2023/10/09 10:46:23;;;;;;;24.00;12.50;;;16.70;99.90;;;;;;4948177;28;20146;-83
2023/10/09 10:49:00;;;;;;;23.52;13.73;;;16.70;99.90;;;;;;4952650;28;20039;-84
2023/10/09 10:51:37;;;;;;;28.45;13.48;;;16.70;99.90;;;;;;4953882;28;20081;-83
2023/10/09 10:56:49;;;;;;;26.38;13.68;;;16.70;99.90;;;;;;4971765;28;20054;-84
2023/10/09 10:59:22;;;;;;;26.13;14.10;;;16.60;99.90;;;;;;4936346;29;20043;-84
2023/10/09 11:02:22;;;;;;;24.33;14.30;;;16.70;99.90;;;;;;4940621;28;20443;-84
2023/10/09 11:04:47;;;;;;;24.70;13.48;;;16.70;99.90;;;;;;4952615;28;20615;-83
2023/10/09 11:07:16;;;;;;;25.83;14.18;;;16.60;99.90;;;;;;4969489;28;20058;-84
2023/10/09 11:12:42;;;;;;;28.80;14.05;;;16.60;99.90;;;;;;4971723;28;20138;-84
2023/10/09 11:18:05;;;;;;;22.30;12.65;;;16.60;99.90;;;;;;4953684;28;20050;-84
2023/10/09 11:20:33;;;;;;;23.85;13.20;;;16.60;99.90;;;;;;4955736;28;20089;-83
2023/10/09 11:23:29;;;;;;;25.02;12.75;;;16.60;99.90;;;;;;4971657;28;20051;-83
2023/10/09 11:26:20;;;;;;;25.15;12.45;;;16.60;99.90;;;;;;4974707;28;20101;-83
2023/10/09 11:28:49;;;;;;;24.00;12.55;;;16.60;99.90;;;;;;4974424;28;20078;-84
2023/10/09 11:31:18;;;;;;;26.33;12.35;;;16.60;99.90;;;;;;4966771;28;20526;-84
2023/10/09 11:33:53;;;;;;;22.23;11.88;;;16.60;99.90;;;;;;4958905;28;20031;-85
2023/10/09 11:36:34;;;;;;;22.35;12.00;;;16.60;99.90;;;;;;4963784;28;20038;-82
2023/10/09 11:39:16;;;;;;;28.13;12.50;;;16.70;99.90;;;;;;4975108;28;20097;-85
2023/10/09 11:41:42;;;;;;;27.45;12.13;;;16.70;99.90;;;;;;4959045;28;20043;-84
2023/10/09 11:44:25;;;;;;;22.08;11.25;;;16.70;99.90;;;;;;4958333;28;20070;-84
2023/10/09 11:46:58;;;;;;;24.13;12.25;;;16.70;99.90;;;;;;4958298;28;20047;-84
2023/10/09 11:49:34;;;;;;;28.30;13.23;;;16.70;99.90;;;;;;4975862;28;20047;-84
2023/10/09 11:54:38;;;;;;;28.08;13.23;;;16.70;99.90;;;;;;4971361;28;20057;-84
2023/10/09 11:57:03;;;;;;;29.00;12.63;;;16.60;99.90;;;;;;4958832;28;20043;-84
2023/10/09 11:59:37;;;;;;;27.67;12.77;;;16.70;99.90;;;;;;4974263;28;20089;-84
2023/10/09 12:02:14;;;;;;;28.52;12.43;;;16.70;99.90;;;;;;4965643;28;20125;-85
2023/10/09 12:04:42;;;;;;;24.20;12.68;;;16.70;99.90;;;;;;4958843;28;20038;-85
2023/10/09 12:07:10;;;;;;;24.70;11.82;;;16.80;99.90;;;;;;4955169;28;20391;-84
2023/10/09 12:09:39;;;;;;;24.08;10.57;;;16.80;99.90;;;;;;4955087;28;20403;-85
2023/10/09 12:12:07;;;;;;;19.65;9.43;;;16.80;99.90;;;;;;4939065;29;20035;-84
2023/10/09 12:14:33;;;;;;;20.40;9.48;;;16.80;99.90;;;;;;4961203;28;20094;-85
2023/10/09 12:17:06;;;;;;;19.48;10.57;;;16.80;99.90;;;;;;4955582;28;20065;-86
2023/10/09 12:19:36;;;;;;;22.08;10.32;;;16.90;99.90;;;;;;4957891;28;20102;-83
2023/10/09 12:22:05;;;;;;;16.05;9.63;;;17.00;99.90;;;;;;4954344;29;20050;-85
2023/10/09 12:24:33;;;;;;;19.15;8.90;;;17.00;99.90;;;;;;4954244;28;20396;-85
2023/10/09 12:26:59;;;;;;;19.05;9.23;;;17.00;99.90;;;;;;4973966;28;20495;-85
2023/10/09 12:29:29;;;;;;;18.48;9.65;;;17.10;99.90;;;;;;4973844;28;20049;-86
2023/10/09 12:31:59;;;;;;;24.13;9.48;;;17.10;99.90;;;;;;4974580;28;20050;-85
2023/10/09 12:34:30;;;;;;;17.77;9.30;;;17.20;99.90;;;;;;4954048;28;20035;-85
2023/10/09 12:37:01;;;;;;;17.10;9.13;;;17.20;99.90;;;;;;4954662;28;20039;-85
2023/10/09 12:39:33;;;;;;;18.73;8.90;;;17.20;99.90;;;;;;4961803;28;20049;-85
2023/10/09 12:42:06;;;;;;;15.13;7.68;;;17.30;99.90;;;;;;4957814;28;20375;-85
2023/10/09 12:44:34;;;;;;;17.02;8.25;;;17.30;99.90;;;;;;4958233;28;20101;-85
2023/10/09 12:47:04;;;;;;;17.55;8.25;;;17.30;99.90;;;;;;4973659;28;20047;-85
2023/10/09 12:49:30;;;;;;;19.35;7.85;;;17.30;99.90;;;;;;4957284;28;20065;-85
2023/10/09 12:51:58;;;;;;;12.65;6.63;;;17.30;99.90;;;;;;4941437;28;20530;-85
2023/10/09 12:54:27;;;;;;;15.48;7.13;;;17.40;99.90;;;;;;4973396;28;20066;-85
2023/10/09 12:56:55;;;;;;;11.13;6.78;;;17.40;99.90;;;;;;4973137;28;20546;-84
2023/10/09 12:59:21;;;;;;;15.52;6.07;;;17.40;99.90;;;;;;4957027;28;20042;-84
2023/10/09 13:01:52;;;;;;;9.77;5.78;;;17.40;99.90;;;;;;4974456;28;20043;-83
2023/10/09 13:04:22;;;;;;;13.38;5.90;;;17.40;99.90;;;;;;4973789;28;20039;-84
2023/10/09 13:06:51;;;;;;;10.48;5.45;;;17.50;99.90;;;;;;4973351;28;20089;-84
2023/10/09 13:09:32;;;;;;;11.52;5.25;;;17.60;99.90;;;;;;4973015;28;20047;-85
2023/10/09 13:12:00;;;;;;;11.77;4.68;;;17.70;99.90;;;;;;4957584;28;20398;-85
2023/10/09 13:14:27;;;;;;;12.75;5.07;;;17.70;99.90;;;;;;4974442;28;20089;-84
2023/10/09 13:16:53;;;;;;;15.45;5.30;;;17.80;99.90;;;;;;4973466;28;20046;-85
2023/10/09 13:19:19;;;;;;;10.93;4.63;;;17.80;99.90;;;;;;4957120;28;20053;-85
2023/10/09 13:21:45;;;;;;;11.70;4.78;;;17.90;99.90;;;;;;4953608;28;20042;-85
2023/10/09 13:24:15;;;;;;;9.00;4.00;;;17.90;99.90;;;;;;4957276;28;20054;-85
2023/10/09 13:26:46;;;;;;;8.38;3.95;;;18.00;99.90;;;;;;4957071;28;20395;-84
2023/10/09 13:29:13;;;;;;;9.70;4.55;;;18.00;99.90;;;;;;4950663;28;20117;-84
2023/10/09 13:31:46;;;;;;;7.40;4.30;;;18.10;99.90;;;;;;4956690;28;20395;-85
2023/10/09 13:34:15;;;;;;;9.27;4.60;;;18.10;99.90;;;;;;4955411;28;20039;-84
2023/10/09 13:36:49;;;;;;;10.52;4.80;;;18.10;99.90;;;;;;4973091;28;20039;-84
2023/10/09 13:39:25;;;;;;;10.57;4.47;;;18.00;99.90;;;;;;4956638;28;20047;-85
2023/10/09 13:41:57;;;;;;;10.80;4.63;;;18.00;99.90;;;;;;4974299;28;20046;-84
2023/10/09 13:44:31;;;;;;;7.82;4.72;;;18.00;99.90;;;;;;4956503;28;20469;-85
2023/10/09 13:46:59;;;;;;;11.30;5.15;;;17.90;99.90;;;;;;4937365;29;20043;-85
2023/10/09 13:49:30;;;;;;;10.57;4.43;;;17.90;99.90;;;;;;4952348;28;20070;-84
2023/10/09 13:52:01;;;;;;;7.82;4.60;;;17.90;99.90;;;;;;4956165;28;20705;-83
2023/10/09 13:57:03;;;;;;;8.93;4.22;;;17.90;99.90;;;;;;4972122;28;20050;-84
2023/10/09 13:59:30;;;;;;;10.57;4.15;;;17.80;99.90;;;;;;4971983;28;20051;-84
2023/10/09 14:01:56;;;;;;;9.98;3.92;;;17.80;99.90;;;;;;4952269;29;20085;-84
2023/10/09 14:04:28;;;;;;;7.28;3.75;;;17.80;99.90;;;;;;4954497;28;20495;-84
2023/10/09 14:06:59;;;;;;;11.48;4.00;;;17.70;99.90;;;;;;4955800;28;20081;-83
2023/10/09 14:09:31;;;;;;;8.27;4.70;;;17.70;99.90;;;;;;4971840;28;20050;-83
2023/10/09 14:12:08;;;;;;;8.93;3.83;;;17.60;99.90;;;;;;4971778;28;20369;-84
2023/10/09 14:14:37;;;;;;;9.85;4.35;;;17.60;99.90;;;;;;4970667;28;20113;-84
2023/10/09 14:17:11;;;;;;;8.60;4.07;;;17.60;99.90;;;;;;4960967;28;20050;-85
2023/10/09 14:19:47;;;;;;;8.05;3.88;;;17.50;99.90;;;;;;4956487;28;20125;-84
2023/10/09 14:22:26;;;;;;;7.82;4.40;;;17.40;99.90;;;;;;4959782;28;20042;-85
2023/10/09 14:24:55;;;;;;;8.00;3.65;;;17.40;99.90;;;;;;4941314;28;20031;-85
2023/10/09 14:27:26;;;;;;;6.80;3.08;;;17.30;99.90;;;;;;4971169;28;20047;-85
2023/10/09 14:29:59;;;;;;;6.80;3.58;;;17.30;99.90;;;;;;4971756;28;20138;-85
2023/10/09 14:32:34;;;;;;;6.60;3.22;;;17.30;99.90;;;;;;4972520;28;20054;-85
2023/10/09 14:35:12;;;;;;;10.77;3.70;;;17.20;99.90;;;;;;4972905;28;20039;-85
2023/10/09 14:37:39;;;;;;;9.32;3.30;;;17.20;99.90;;;;;;4966802;28;20047;-86
2023/10/09 14:40:12;;;;;;;7.53;3.35;;;17.20;99.90;;;;;;4962826;28;20469;-86
2023/10/09 14:42:43;;;;;;;6.07;3.30;;;17.20;99.90;;;;;;4960628;28;20113;-86
2023/10/09 14:45:16;;;;;;;7.55;3.60;;;17.10;99.90;;;;;;4971734;28;20074;-85
2023/10/09 14:47:47;;;;;;;8.10;3.30;;;17.10;99.90;;;;;;4955486;28;20038;-86
2023/10/09 14:50:14;;;;;;;8.18;3.45;;;17.10;99.90;;;;;;4940101;28;20047;-85
2023/10/09 14:52:40;;;;;;;10.50;3.88;;;17.10;99.90;;;;;;4939984;28;20479;-85
2023/10/09 14:55:07;;;;;;;9.75;3.92;;;17.10;99.90;;;;;;4972045;28;20406;-85
2023/10/09 14:57:33;;;;;;;6.28;3.22;;;17.10;99.90;;;;;;4972517;28;20039;-85
2023/10/09 15:00:07;;;;;;;9.90;3.95;;;17.10;99.90;;;;;;4975529;28;20513;-85